createdAt,value
2022-11-13T00:01:25.031Z,93.08
2022-11-13T00:03:52.115Z,92.53
2022-11-13T00:06:20.225Z,92.34
2022-11-13T00:08:48.059Z,91.35
2022-11-13T00:11:20.115Z,91.48
2022-11-13T00:13:49.137Z,91.03
2022-11-13T00:16:20.953Z,91.60
2022-11-13T00:18:48.436Z,91.02
2022-11-13T00:21:25.429Z,91.29
2022-11-13T00:23:53.813Z,91.55
2022-11-13T00:26:31.049Z,91.20
2022-11-13T00:29:01.808Z,90.40
2022-11-13T00:31:30.101Z,91.79
2022-11-13T00:34:19.507Z,91.67
2022-11-13T00:36:46.840Z,91.05
2022-11-13T00:39:13.936Z,90.49
2022-11-13T00:41:40.979Z,91.10
2022-11-13T00:44:08.274Z,91.09
2022-11-13T00:46:38.073Z,91.60
2022-11-13T00:49:05.338Z,91.15
2022-11-13T00:51:32.777Z,91.82
2022-11-13T00:53:59.752Z,91.79
2022-11-13T00:56:27.157Z,91.50
2022-11-13T00:58:54.129Z,91.81
2022-11-13T01:01:22.052Z,92.10
2022-11-13T01:03:49.276Z,92.09
2022-11-13T01:06:27.037Z,91.27
2022-11-13T01:08:59.877Z,92.21
2022-11-13T01:11:30.054Z,91.57
2022-11-13T01:13:57.991Z,91.54
2022-11-13T01:16:27.835Z,90.54
2022-11-13T01:18:56.067Z,91.09
2022-11-13T01:21:27.358Z,91.19
2022-11-13T01:23:56.399Z,91.22
2022-11-13T01:26:29.997Z,91.75
2022-11-13T01:28:59.390Z,91.69
2022-11-13T01:31:31.115Z,91.08
2022-11-13T01:33:58.906Z,90.90
2022-11-13T01:36:28.658Z,91.82
2022-11-13T01:38:56.194Z,91.45
2022-11-13T01:41:33.607Z,91.79
2022-11-13T01:44:01.493Z,91.28
2022-11-13T01:46:35.124Z,91.04
2022-11-13T01:49:15.931Z,90.82
2022-11-13T01:52:40.935Z,92.30
2022-11-13T01:55:16.078Z,91.87
2022-11-13T01:57:43.169Z,91.40
2022-11-13T02:00:12.623Z,91.33
2022-11-13T02:02:39.718Z,91.35
2022-11-13T02:05:09.146Z,91.25
2022-11-13T02:07:36.143Z,90.92
2022-11-13T02:10:03.313Z,90.99
2022-11-13T02:12:42.360Z,91.38
2022-11-13T02:15:10.825Z,90.89
2022-11-13T02:17:50.364Z,90.56
2022-11-13T02:20:29.559Z,91.20
2022-11-13T02:23:30.000Z,91.05
2022-11-13T02:25:57.614Z,90.51
2022-11-13T02:28:24.633Z,90.55
2022-11-13T02:30:51.708Z,90.16
2022-11-13T02:33:33.064Z,90.63
2022-11-13T02:36:00.510Z,90.69
2022-11-13T02:38:28.038Z,90.85
2022-11-13T02:40:55.377Z,90.15
2022-11-13T02:43:22.384Z,90.19
2022-11-13T02:45:49.407Z,90.33
2022-11-13T02:48:16.427Z,90.01
2022-11-13T02:50:43.809Z,90.31
2022-11-13T02:53:11.024Z,90.91
2022-11-13T02:55:38.261Z,90.66
2022-11-13T02:58:05.374Z,89.72
2022-11-13T03:00:32.603Z,89.95
2022-11-13T03:02:59.667Z,89.99
2022-11-13T03:05:26.690Z,89.40
2022-11-13T03:07:53.876Z,89.68
2022-11-13T03:10:20.863Z,89.59
2022-11-13T03:12:47.864Z,89.89
2022-11-13T03:15:14.956Z,89.92
2022-11-13T03:17:41.976Z,89.71
2022-11-13T03:20:09.539Z,89.51
2022-11-13T03:22:36.547Z,89.40
2022-11-13T03:25:09.908Z,89.92
2022-11-13T03:27:37.801Z,89.55
2022-11-13T03:30:06.189Z,89.58
2022-11-13T03:32:33.176Z,89.81
2022-11-13T03:35:00.145Z,89.82
2022-11-13T03:37:27.192Z,89.97
2022-11-13T03:39:54.146Z,90.23
2022-11-13T03:42:21.099Z,90.34
2022-11-13T03:44:48.157Z,90.27
2022-11-13T03:47:15.642Z,89.80
2022-11-13T03:49:42.625Z,89.25
2022-11-13T03:52:09.848Z,89.82
2022-11-13T03:54:36.797Z,89.18
2022-11-13T03:57:04.192Z,89.35
2022-11-13T03:59:31.177Z,89.75
2022-11-13T04:01:58.174Z,89.35
2022-11-13T04:04:25.186Z,88.97
2022-11-13T04:06:52.284Z,88.52
2022-11-13T04:09:19.360Z,89.20
2022-11-13T04:11:46.335Z,88.75
2022-11-13T04:14:13.424Z,88.53
2022-11-13T04:16:40.553Z,89.57
2022-11-13T04:19:07.563Z,89.45
2022-11-13T04:21:34.681Z,89.46
2022-11-13T04:24:01.699Z,89.54
2022-11-13T04:26:28.721Z,89.37
2022-11-13T04:28:55.733Z,90.08
2022-11-13T04:31:22.928Z,89.77
2022-11-13T04:33:49.929Z,89.07
2022-11-13T04:36:17.015Z,89.04
2022-11-13T04:38:44.002Z,89.57
2022-11-13T04:41:32.406Z,90.17
2022-11-13T04:43:59.487Z,90.25
2022-11-13T04:46:26.512Z,90.04
2022-11-13T04:48:53.483Z,89.53
2022-11-13T04:51:20.554Z,89.26
2022-11-13T04:53:47.640Z,89.57
2022-11-13T04:56:14.618Z,89.58
2022-11-13T04:58:41.565Z,89.69
2022-11-13T05:01:08.530Z,89.41
2022-11-13T05:03:35.723Z,89.33
2022-11-13T05:06:08.625Z,89.63
2022-11-13T05:08:36.331Z,89.87
2022-11-13T05:11:04.217Z,89.94
2022-11-13T05:13:36.427Z,89.51
2022-11-13T05:16:08.469Z,89.34
2022-11-13T05:18:37.339Z,89.33
2022-11-13T05:21:07.580Z,89.86
2022-11-13T05:23:35.409Z,89.63
2022-11-13T05:26:13.151Z,89.67
2022-11-13T05:28:40.512Z,90.53
2022-11-13T05:31:18.054Z,90.36
2022-11-13T05:33:49.648Z,89.89
2022-11-13T05:36:19.527Z,89.34
2022-11-13T05:38:46.911Z,90.10
2022-11-13T05:41:22.388Z,90.04
2022-11-13T05:43:53.738Z,90.13
2022-11-13T05:46:28.221Z,89.51
2022-11-13T05:48:59.386Z,89.33
2022-11-13T05:51:31.509Z,89.86
2022-11-13T05:53:59.577Z,89.94
2022-11-13T05:56:34.647Z,89.50
2022-11-13T05:59:03.565Z,89.49
2022-11-13T06:01:38.956Z,89.66
2022-11-13T06:04:07.993Z,89.57
2022-11-13T06:06:35.371Z,90.58
2022-11-13T06:09:06.127Z,90.19
2022-11-13T06:11:33.227Z,89.92
2022-11-13T06:14:00.887Z,89.83
2022-11-13T06:16:34.846Z,89.54
2022-11-13T06:19:05.787Z,90.53
2022-11-13T06:21:36.602Z,90.92
2022-11-13T06:24:04.021Z,90.24
2022-11-13T06:26:35.623Z,90.74
2022-11-13T06:29:07.214Z,91.13
2022-11-13T06:31:36.808Z,91.11
2022-11-13T06:34:05.452Z,91.75
2022-11-13T06:36:37.150Z,91.16
2022-11-13T06:39:09.516Z,91.89
2022-11-13T06:41:39.349Z,91.29
2022-11-13T06:44:06.450Z,91.19
2022-11-13T06:46:33.547Z,91.84
2022-11-13T06:49:00.665Z,91.62
2022-11-13T06:51:31.764Z,91.74
2022-11-13T06:53:58.850Z,91.84
2022-11-13T06:56:26.677Z,91.48
2022-11-13T06:58:56.014Z,91.31
2022-11-13T07:01:26.143Z,91.84
2022-11-13T07:03:53.969Z,92.24
2022-11-13T07:06:24.349Z,92.82
2022-11-13T07:08:51.867Z,92.07
2022-11-13T07:11:22.421Z,92.08
2022-11-13T07:13:50.509Z,92.25
2022-11-13T07:16:18.589Z,92.30
2022-11-13T07:18:53.530Z,92.07
2022-11-13T07:21:22.266Z,92.40
2022-11-13T07:23:50.821Z,93.27
2022-11-13T07:26:19.206Z,93.22
2022-11-13T07:28:47.730Z,93.52
2022-11-13T07:31:17.453Z,93.83
2022-11-13T07:33:44.541Z,93.80
2022-11-13T07:36:11.946Z,93.12
2022-11-13T07:38:38.971Z,93.41
2022-11-13T07:41:06.619Z,92.75
2022-11-13T07:43:35.427Z,92.46
2022-11-13T07:46:02.743Z,93.02
2022-11-13T07:48:30.524Z,93.09
2022-11-13T07:51:02.434Z,93.11
2022-11-13T07:53:30.525Z,93.56
2022-11-13T07:56:02.719Z,93.82
2022-11-13T07:58:31.039Z,92.89
2022-11-13T08:01:04.803Z,93.55
2022-11-13T08:03:32.769Z,92.29
2022-11-13T08:06:07.182Z,92.90
2022-11-13T08:08:35.215Z,93.27
2022-11-13T08:11:08.814Z,93.67
2022-11-13T08:13:36.988Z,93.34
2022-11-13T08:16:05.302Z,93.43
2022-11-13T08:18:32.846Z,93.18
2022-11-13T08:21:05.157Z,93.01
2022-11-13T08:23:33.430Z,93.27
2022-11-13T08:26:06.480Z,93.12
2022-11-13T08:28:35.625Z,93.05
2022-11-13T08:31:03.754Z,93.17
2022-11-13T08:33:32.461Z,93.22
2022-11-13T08:36:00.792Z,92.66
2022-11-13T08:38:28.178Z,92.85
2022-11-13T08:41:05.783Z,92.40
2022-11-13T08:43:34.450Z,92.64
2022-11-13T08:46:02.353Z,93.22
2022-11-13T08:48:29.732Z,92.71
2022-11-13T08:50:57.785Z,92.43
2022-11-13T08:53:25.909Z,92.74
2022-11-13T08:55:53.058Z,93.15
2022-11-13T08:58:20.079Z,92.68
2022-11-13T09:00:47.423Z,93.08
2022-11-13T09:03:14.830Z,92.99
2022-11-13T09:05:41.837Z,92.88
2022-11-13T09:08:16.229Z,93.42
2022-11-13T09:10:43.356Z,92.98
2022-11-13T09:13:11.866Z,92.71
2022-11-13T09:15:39.976Z,92.44
2022-11-13T09:18:07.285Z,92.67
2022-11-13T09:20:35.141Z,91.88
2022-11-13T09:23:07.097Z,92.06
2022-11-13T09:25:38.084Z,92.42
2022-11-13T09:28:07.199Z,92.57
2022-11-13T09:30:34.668Z,92.34
2022-11-13T09:33:01.983Z,91.87
2022-11-13T09:35:36.995Z,92.07
2022-11-13T09:38:11.280Z,91.77
2022-11-13T09:41:14.912Z,91.54
2022-11-13T09:44:00.320Z,91.32
2022-11-13T09:46:55.340Z,91.05
2022-11-13T09:49:38.362Z,90.65
2022-11-13T09:52:24.255Z,89.46
2022-11-13T09:54:51.616Z,88.93
2022-11-13T09:57:31.428Z,89.11
2022-11-13T10:00:27.077Z,88.94
2022-11-13T10:06:58.518Z,89.53
2022-11-13T10:10:30.432Z,89.32
2022-11-13T10:13:00.076Z,88.75
2022-11-13T10:15:28.101Z,88.66
2022-11-13T10:18:30.642Z,89.14
2022-11-13T10:21:17.910Z,89.11
2022-11-13T10:23:55.096Z,88.67
2022-11-13T10:26:29.380Z,88.49
2022-11-13T10:29:18.868Z,88.02
2022-11-13T10:31:51.031Z,87.40
2022-11-13T10:34:19.730Z,87.44
2022-11-13T10:37:38.862Z,87.72
2022-11-13T10:40:06.841Z,86.90
2022-11-13T10:42:41.284Z,86.84
2022-11-13T10:45:22.571Z,85.78
2022-11-13T10:48:04.102Z,85.36
2022-11-13T10:50:33.481Z,85.38
2022-11-13T10:53:00.567Z,85.48
2022-11-13T10:55:41.677Z,85.07
2022-11-13T10:58:18.900Z,85.44
2022-11-13T11:00:49.697Z,85.90
2022-11-13T11:03:23.565Z,84.83
2022-11-13T11:06:04.130Z,85.29
2022-11-13T11:08:36.054Z,84.49
2022-11-13T11:11:32.578Z,85.26
2022-11-13T11:14:28.316Z,85.54
2022-11-13T11:16:56.467Z,85.12
2022-11-13T11:19:30.909Z,85.02
2022-11-13T11:22:20.816Z,84.25
2022-11-13T11:25:03.974Z,84.97
2022-11-13T11:28:00.120Z,85.58
2022-11-13T11:30:39.995Z,84.21
2022-11-13T11:33:47.298Z,84.66
2022-11-13T11:36:46.699Z,84.56
2022-11-13T11:39:19.380Z,82.72
2022-11-13T11:42:33.545Z,83.01
2022-11-13T11:45:40.741Z,82.98
2022-11-13T11:48:24.238Z,82.87
2022-11-13T11:51:34.768Z,83.52
2022-11-13T11:54:54.193Z,83.16
2022-11-13T11:58:29.139Z,82.84
2022-11-13T12:01:40.986Z,83.07
2022-11-13T12:04:54.745Z,82.74
2022-11-13T12:07:58.582Z,82.68
2022-11-13T12:10:56.769Z,83.06
2022-11-13T12:13:33.724Z,82.99
2022-11-13T12:16:14.935Z,81.66
2022-11-13T12:19:10.960Z,81.37
2022-11-13T12:22:17.881Z,81.43
2022-11-13T12:25:11.635Z,82.52
2022-11-13T12:29:05.615Z,81.08
2022-11-13T12:32:18.912Z,81.26
2022-11-13T12:34:55.324Z,81.33
2022-11-13T12:38:29.236Z,81.33
2022-11-13T12:41:45.686Z,80.98
2022-11-13T12:44:27.601Z,80.07
2022-11-13T12:47:00.255Z,80.48
2022-11-13T12:49:35.751Z,80.33
2022-11-13T12:52:20.471Z,79.71
2022-11-13T12:54:47.807Z,79.38
2022-11-13T12:57:15.569Z,80.75
2022-11-13T13:00:00.579Z,81.15
2022-11-13T13:03:11.012Z,80.85
2022-11-13T13:06:22.900Z,81.27
2022-11-13T13:10:12.127Z,81.01
2022-11-13T13:13:23.982Z,81.30
2022-11-13T13:16:02.684Z,81.40
2022-11-13T13:18:38.345Z,81.43
2022-11-13T13:21:20.435Z,81.33
2022-11-13T13:24:00.687Z,82.01
2022-11-13T13:26:44.348Z,81.88
2022-11-13T13:29:30.663Z,81.98
2022-11-13T13:32:23.661Z,82.32
2022-11-13T13:35:24.319Z,82.02
2022-11-13T13:38:32.890Z,81.89
2022-11-13T13:41:58.508Z,82.29
2022-11-13T13:45:35.971Z,82.70
2022-11-13T13:48:08.837Z,82.69
2022-11-13T13:50:47.138Z,83.10
2022-11-13T13:53:26.589Z,82.90
2022-11-13T13:55:56.641Z,82.64
2022-11-13T13:58:35.763Z,82.77
2022-11-13T14:01:18.949Z,83.18
2022-11-13T14:03:47.143Z,83.25
2022-11-13T14:06:23.661Z,83.21
2022-11-13T14:08:50.880Z,83.68
2022-11-13T14:11:32.332Z,83.28
2022-11-13T14:14:26.024Z,83.91
2022-11-13T14:17:00.499Z,83.58
2022-11-13T14:19:28.215Z,84.35
2022-11-13T14:22:01.837Z,84.25
2022-11-13T14:24:43.641Z,84.35
2022-11-13T14:27:24.254Z,84.43
2022-11-13T14:29:59.927Z,85.45
2022-11-13T14:32:42.964Z,84.79
2022-11-13T14:35:24.369Z,85.05
2022-11-13T14:37:54.835Z,85.60
2022-11-13T14:40:32.350Z,85.82
2022-11-13T14:43:07.484Z,86.57
2022-11-13T14:45:34.786Z,86.59
2022-11-13T14:48:25.981Z,86.21
2022-11-13T14:51:06.895Z,86.27
2022-11-13T14:53:42.307Z,86.79
2022-11-13T14:56:12.077Z,86.92
2022-11-13T14:58:47.180Z,86.76
2022-11-13T15:01:22.418Z,87.19
2022-11-13T15:03:52.083Z,87.40
2022-11-13T15:06:36.999Z,86.91
2022-11-13T15:09:13.543Z,87.57
2022-11-13T15:11:40.806Z,87.55
2022-11-13T15:14:19.349Z,88.05
2022-11-13T15:16:48.742Z,88.06
2022-11-13T15:19:38.188Z,88.44
2022-11-13T15:22:26.447Z,88.87
2022-11-13T15:24:54.054Z,89.14
2022-11-13T15:27:21.041Z,88.34
2022-11-13T15:29:48.747Z,89.05
2022-11-13T15:32:16.276Z,88.74
2022-11-13T15:34:43.683Z,88.57
2022-11-13T15:37:16.781Z,89.70
2022-11-13T15:39:44.128Z,89.16
2022-11-13T15:42:27.474Z,89.11
2022-11-13T15:44:54.705Z,90.06
2022-11-13T15:47:28.832Z,89.18
2022-11-13T15:50:15.164Z,89.73
2022-11-13T15:52:50.537Z,90.70
2022-11-13T15:55:31.615Z,91.38
2022-11-13T15:57:59.165Z,90.91
2022-11-13T16:00:29.127Z,91.79
2022-11-13T16:02:57.652Z,91.46
2022-11-13T16:05:29.312Z,91.19
2022-11-13T16:07:57.607Z,90.99
2022-11-13T16:10:25.946Z,90.62
2022-11-13T16:12:53.625Z,91.63
2022-11-13T16:15:23.766Z,91.49
2022-11-13T16:17:55.568Z,92.26
2022-11-13T16:20:22.760Z,91.06
2022-11-13T16:22:50.669Z,91.18
2022-11-13T16:25:21.385Z,91.65
2022-11-13T16:27:48.947Z,91.62
2022-11-13T16:30:21.201Z,92.47
2022-11-13T16:32:48.946Z,92.10
2022-11-13T16:35:19.462Z,91.15
2022-11-13T16:37:46.665Z,91.84
2022-11-13T16:40:26.447Z,91.11
2022-11-13T16:42:54.169Z,92.21
2022-11-13T16:45:22.400Z,91.36
2022-11-13T16:47:50.766Z,91.46
2022-11-13T16:50:28.607Z,91.38
2022-11-13T16:52:56.558Z,90.95
2022-11-13T16:55:24.397Z,90.48
2022-11-13T17:01:01.559Z,90.63
2022-11-13T17:04:36.375Z,90.89
2022-11-13T17:06:43.971Z,91.49
2022-11-13T17:10:16.604Z,91.54
2022-11-13T17:13:40.949Z,91.40
2022-11-13T17:16:02.103Z,91.94
2022-11-13T17:18:34.352Z,92.00
2022-11-13T17:21:12.369Z,92.84
2022-11-13T17:24:11.735Z,92.14
2022-11-13T17:26:45.755Z,92.29
2022-11-13T17:29:19.252Z,92.21
2022-11-13T17:31:53.028Z,92.63
2022-11-13T17:34:20.071Z,92.07
2022-11-13T17:36:47.765Z,91.41
2022-11-13T17:39:15.417Z,92.30
2022-11-13T17:41:42.411Z,91.59
2022-11-13T17:44:12.233Z,92.29
2022-11-13T17:46:55.070Z,91.93
2022-11-13T17:49:22.587Z,91.42
2022-11-13T17:51:56.073Z,91.48
2022-11-13T17:54:25.172Z,92.57
2022-11-13T17:56:52.833Z,92.10
2022-11-13T17:59:22.987Z,92.54
2022-11-13T18:01:50.491Z,91.16
2022-11-13T18:04:17.501Z,91.25
2022-11-13T18:06:44.812Z,92.20
2022-11-13T18:09:12.554Z,92.34
2022-11-13T18:11:39.680Z,91.42
2022-11-13T18:14:06.956Z,91.30
2022-11-13T18:16:34.712Z,91.01
2022-11-13T18:19:06.964Z,91.81
2022-11-13T18:21:40.519Z,91.74
2022-11-13T18:24:19.327Z,91.72
2022-11-13T18:26:56.103Z,91.48
2022-11-13T18:29:38.489Z,91.78
2022-11-13T18:32:05.619Z,91.52
2022-11-13T18:34:32.688Z,91.94
2022-11-13T18:37:00.390Z,90.58
2022-11-13T18:39:27.910Z,90.39
2022-11-13T18:42:14.958Z,91.42
2022-11-13T18:44:45.306Z,92.18
2022-11-13T18:47:12.631Z,91.74
2022-11-13T18:49:40.119Z,92.71
2022-11-13T18:52:10.458Z,92.55
2022-11-13T18:54:38.066Z,91.34
2022-11-13T18:57:05.627Z,91.33
2022-11-13T18:59:33.197Z,92.09
2022-11-13T19:02:00.708Z,91.95
2022-11-13T19:04:27.951Z,91.73
2022-11-13T19:06:55.558Z,92.12
2022-11-13T19:09:22.979Z,91.28
2022-11-13T19:11:54.392Z,91.70
2022-11-13T19:14:21.787Z,92.49
2022-11-13T19:16:49.015Z,92.61
2022-11-13T19:19:21.401Z,92.29
2022-11-13T19:21:49.221Z,92.73
2022-11-13T19:24:17.309Z,92.00
2022-11-13T19:26:46.179Z,92.92
2022-11-13T19:29:27.325Z,92.69
2022-11-13T19:31:56.961Z,92.68
2022-11-13T19:34:26.084Z,91.98
2022-11-13T19:36:54.424Z,91.14
2022-11-13T19:39:29.214Z,91.80
2022-11-13T19:41:56.828Z,92.32
2022-11-13T19:44:27.769Z,91.66
2022-11-13T19:46:58.286Z,92.37
2022-11-13T19:49:43.899Z,92.26
2022-11-13T19:52:17.266Z,92.38
2022-11-13T19:54:45.050Z,90.86
2022-11-13T19:57:18.324Z,91.22
2022-11-13T19:59:45.765Z,92.01
2022-11-13T20:02:14.229Z,92.23
2022-11-13T20:04:47.390Z,91.77
2022-11-13T20:07:16.076Z,92.32
2022-11-13T20:09:43.557Z,92.92
2022-11-13T20:12:10.879Z,91.96
2022-11-13T20:14:38.696Z,91.84
2022-11-13T20:17:12.446Z,92.30
2022-11-13T20:19:39.729Z,92.16
2022-11-13T20:22:06.846Z,91.77
2022-11-13T20:24:37.197Z,92.85
2022-11-13T20:27:13.480Z,92.86
2022-11-13T20:29:43.629Z,92.22
2022-11-13T20:32:10.878Z,92.86
2022-11-13T20:34:47.571Z,92.45
2022-11-13T20:37:15.023Z,92.94
2022-11-13T20:39:42.434Z,91.88
2022-11-13T20:42:14.812Z,91.45
2022-11-13T20:44:41.815Z,92.48
2022-11-13T20:47:12.099Z,92.54
2022-11-13T20:49:39.756Z,91.86
2022-11-13T20:52:12.652Z,91.81
2022-11-13T20:54:42.945Z,91.37
2022-11-13T20:57:13.548Z,91.35
2022-11-13T20:59:43.181Z,90.85
2022-11-13T21:02:12.783Z,91.70
2022-11-13T21:07:31.653Z,91.50
2022-11-13T21:09:58.946Z,91.39
2022-11-13T21:12:26.683Z,91.28
2022-11-13T21:14:53.699Z,92.06
2022-11-13T21:17:20.671Z,92.26
2022-11-13T21:19:48.016Z,91.17
2022-11-13T21:25:33.615Z,91.69
2022-11-13T21:28:43.492Z,92.23
2022-11-13T21:31:34.437Z,91.52
2022-11-13T21:34:01.628Z,92.09
2022-11-13T21:36:33.305Z,91.52
2022-11-13T21:39:06.599Z,91.88
2022-11-13T21:41:39.685Z,92.25
2022-11-13T21:44:10.802Z,92.00
2022-11-13T21:46:45.599Z,92.55
2022-11-13T21:49:17.978Z,92.08
2022-11-13T21:51:47.725Z,92.13
2022-11-13T21:54:15.412Z,91.35
2022-11-13T21:56:51.910Z,92.08
2022-11-13T21:59:19.071Z,91.85
2022-11-13T22:01:58.887Z,91.63
2022-11-13T22:04:26.085Z,91.66
2022-11-13T22:06:54.597Z,92.41
2022-11-13T22:09:40.998Z,91.90
2022-11-13T22:12:12.230Z,92.20
2022-11-13T22:14:44.265Z,92.45
2022-11-13T22:17:25.303Z,91.08
2022-11-13T22:20:05.216Z,91.61
2022-11-13T22:22:52.522Z,92.35
2022-11-13T22:25:34.624Z,92.06
2022-11-13T22:28:01.740Z,92.03
2022-11-13T22:30:48.978Z,92.49
2022-11-13T22:33:52.475Z,92.81
2022-11-13T22:36:34.192Z,91.80
2022-11-13T22:39:08.056Z,92.08
2022-11-13T22:41:36.722Z,93.25
2022-11-13T22:44:28.563Z,92.57
2022-11-13T22:47:02.167Z,92.22
2022-11-13T22:49:33.080Z,92.68
2022-11-13T22:52:21.847Z,92.98
2022-11-13T22:54:54.144Z,92.96
2022-11-13T22:57:36.977Z,93.41
2022-11-13T23:00:21.282Z,92.74
2022-11-13T23:02:48.435Z,92.41
2022-11-13T23:05:18.878Z,93.07
2022-11-13T23:07:55.113Z,92.30
2022-11-13T23:10:25.330Z,92.14
2022-11-13T23:12:56.088Z,92.12
2022-11-13T23:15:36.262Z,92.06
2022-11-13T23:18:05.874Z,92.53
2022-11-13T23:20:56.050Z,92.74
2022-11-13T23:23:23.157Z,92.91
2022-11-13T23:25:53.306Z,92.73
2022-11-13T23:28:30.203Z,92.76
2022-11-13T23:30:57.744Z,91.99
2022-11-13T23:36:18.118Z,91.90
2022-11-13T23:38:48.401Z,92.88
2022-11-13T23:41:15.729Z,91.93
2022-11-13T23:46:30.114Z,92.53
2022-11-13T23:49:00.637Z,92.10
2022-11-13T23:51:33.701Z,93.08
2022-11-13T23:54:06.321Z,92.38
2022-11-13T23:56:42.728Z,92.20
2022-11-13T23:59:13.835Z,92.98
